sensor_id;sensor_type;location;lat;lon;timestamp;pressure;altitude;pressure_sealevel;temperature;humidity
49377;BME280;35253;34.688;33.040;2023-05-03T00:00:54;101399.63;;;19.53;80.10
49377;BME280;35253;34.688;33.040;2023-05-03T00:03:19;101397.94;;;19.52;80.15
49377;BME280;35253;34.688;33.040;2023-05-03T00:05:48;101398.25;;;19.58;80.24
49377;BME280;35253;34.688;33.040;2023-05-03T00:08:15;101402.09;;;19.56;80.54
49377;BME280;35253;34.688;33.040;2023-05-03T00:10:41;101402.56;;;19.61;80.64
49377;BME280;35253;34.688;33.040;2023-05-03T00:13:07;101396.41;;;19.59;81.84
49377;BME280;35253;34.688;33.040;2023-05-03T00:15:33;101393.25;;;19.43;82.62
49377;BME280;35253;34.688;33.040;2023-05-03T00:17:58;101388.56;;;19.56;80.99
49377;BME280;35253;34.688;33.040;2023-05-03T00:20:24;101388.75;;;19.64;81.59
49377;BME280;35253;34.688;33.040;2023-05-03T00:22:50;101383.06;;;19.67;81.19
49377;BME280;35253;34.688;33.040;2023-05-03T00:25:16;101373.22;;;19.66;81.41
49377;BME280;35253;34.688;33.040;2023-05-03T00:27:42;101382.88;;;19.59;81.60
49377;BME280;35253;34.688;33.040;2023-05-03T00:30:08;101378.72;;;19.55;82.21
49377;BME280;35253;34.688;33.040;2023-05-03T00:32:35;101380.16;;;19.59;82.38
49377;BME280;35253;34.688;33.040;2023-05-03T00:35:01;101369.81;;;19.64;81.77
49377;BME280;35253;34.688;33.040;2023-05-03T00:37:27;101369.47;;;19.57;81.65
49377;BME280;35253;34.688;33.040;2023-05-03T00:39:54;101370.88;;;19.52;82.41
49377;BME280;35253;34.688;33.040;2023-05-03T00:42:19;101363.03;;;19.38;83.91
49377;BME280;35253;34.688;33.040;2023-05-03T00:44:45;101362.03;;;19.50;83.89
49377;BME280;35253;34.688;33.040;2023-05-03T00:47:11;101354.19;;;19.35;84.78
49377;BME280;35253;34.688;33.040;2023-05-03T00:49:37;101354.06;;;19.37;85.84
49377;BME280;35253;34.688;33.040;2023-05-03T00:52:04;101356.19;;;19.33;85.09
49377;BME280;35253;34.688;33.040;2023-05-03T00:54:31;101353.94;;;19.39;86.04
49377;BME280;35253;34.688;33.040;2023-05-03T00:56:59;101347.69;;;19.38;87.79
49377;BME280;35253;34.688;33.040;2023-05-03T00:59:28;101338.50;;;19.29;86.76
49377;BME280;35253;34.688;33.040;2023-05-03T01:01:53;101348.97;;;19.23;88.34
49377;BME280;35253;34.688;33.040;2023-05-03T01:04:20;101343.75;;;19.10;88.41
49377;BME280;35253;34.688;33.040;2023-05-03T01:09:44;101341.97;;;19.00;89.75
49377;BME280;35253;34.688;33.040;2023-05-03T01:12:14;101332.50;;;18.94;89.67
49377;BME280;35253;34.688;33.040;2023-05-03T01:17:16;101339.09;;;19.01;88.98
49377;BME280;35253;34.688;33.040;2023-05-03T01:19:50;101339.38;;;18.98;88.14
49377;BME280;35253;34.688;33.040;2023-05-03T01:25:12;101346.72;;;19.07;85.71
49377;BME280;35253;34.688;33.040;2023-05-03T01:27:40;101336.97;;;18.84;87.30
49377;BME280;35253;34.688;33.040;2023-05-03T01:30:08;101338.84;;;18.72;88.32
49377;BME280;35253;34.688;33.040;2023-05-03T01:38:02;101350.00;;;18.79;86.33
49377;BME280;35253;34.688;33.040;2023-05-03T01:40:31;101351.06;;;18.87;86.24
49377;BME280;35253;34.688;33.040;2023-05-03T01:43:00;101355.84;;;18.95;88.27
49377;BME280;35253;34.688;33.040;2023-05-03T01:45:27;101353.59;;;19.00;87.22
49377;BME280;35253;34.688;33.040;2023-05-03T01:47:55;101344.28;;;19.04;86.88
49377;BME280;35253;34.688;33.040;2023-05-03T01:50:21;101334.94;;;18.97;86.00
49377;BME280;35253;34.688;33.040;2023-05-03T01:52:48;101333.22;;;18.96;87.21
49377;BME280;35253;34.688;33.040;2023-05-03T01:55:16;101342.56;;;19.03;89.83
49377;BME280;35253;34.688;33.040;2023-05-03T01:57:43;101333.59;;;18.91;88.60
49377;BME280;35253;34.688;33.040;2023-05-03T02:00:09;101341.94;;;18.68;88.69
49377;BME280;35253;34.688;33.040;2023-05-03T02:02:35;101334.81;;;18.67;89.95
49377;BME280;35253;34.688;33.040;2023-05-03T02:05:01;101338.25;;;18.46;87.02
49377;BME280;35253;34.688;33.040;2023-05-03T02:07:27;101344.63;;;18.57;87.04
49377;BME280;35253;34.688;33.040;2023-05-03T02:09:53;101353.44;;;18.81;86.41
49377;BME280;35253;34.688;33.040;2023-05-03T02:12:18;101358.13;;;18.45;88.35
49377;BME280;35253;34.688;33.040;2023-05-03T02:14:44;101362.31;;;18.38;87.97
49377;BME280;35253;34.688;33.040;2023-05-03T02:17:10;101365.25;;;18.46;86.21
49377;BME280;35253;34.688;33.040;2023-05-03T02:19:36;101364.78;;;18.41;88.21
49377;BME280;35253;34.688;33.040;2023-05-03T02:22:02;101368.47;;;18.29;87.42
49377;BME280;35253;34.688;33.040;2023-05-03T02:24:27;101372.63;;;18.33;87.15
49377;BME280;35253;34.688;33.040;2023-05-03T02:26:54;101372.25;;;17.93;89.61
49377;BME280;35253;34.688;33.040;2023-05-03T02:29:20;101380.59;;;18.24;87.85
49377;BME280;35253;34.688;33.040;2023-05-03T02:31:45;101378.25;;;18.08;88.36
49377;BME280;35253;34.688;33.040;2023-05-03T02:34:11;101380.72;;;18.11;87.98
49377;BME280;35253;34.688;33.040;2023-05-03T02:36:37;101399.50;;;18.35;87.97
49377;BME280;35253;34.688;33.040;2023-05-03T02:39:03;101395.81;;;18.36;86.86
49377;BME280;35253;34.688;33.040;2023-05-03T02:41:29;101402.34;;;18.56;87.07
49377;BME280;35253;34.688;33.040;2023-05-03T02:43:55;101409.78;;;18.30;87.74
49377;BME280;35253;34.688;33.040;2023-05-03T02:46:21;101410.66;;;18.30;87.04
49377;BME280;35253;34.688;33.040;2023-05-03T02:48:46;101417.69;;;18.55;87.12
49377;BME280;35253;34.688;33.040;2023-05-03T02:51:12;101422.25;;;18.55;86.62
49377;BME280;35253;34.688;33.040;2023-05-03T02:53:38;101420.13;;;18.69;87.21
49377;BME280;35253;34.688;33.040;2023-05-03T02:56:04;101425.66;;;18.57;86.89
49377;BME280;35253;34.688;33.040;2023-05-03T02:58:30;101429.81;;;18.61;87.41
49377;BME280;35253;34.688;33.040;2023-05-03T03:00:55;101438.31;;;18.67;89.15
49377;BME280;35253;34.688;33.040;2023-05-03T03:03:21;101427.72;;;18.75;90.70
49377;BME280;35253;34.688;33.040;2023-05-03T03:05:48;101430.81;;;18.82;92.52
49377;BME280;35253;34.688;33.040;2023-05-03T03:08:14;101428.38;;;18.68;89.62
49377;BME280;35253;34.688;33.040;2023-05-03T03:10:40;101439.16;;;18.79;88.83
49377;BME280;35253;34.688;33.040;2023-05-03T03:13:06;101432.50;;;18.83;88.26
49377;BME280;35253;34.688;33.040;2023-05-03T03:15:31;101445.16;;;18.94;88.02
49377;BME280;35253;34.688;33.040;2023-05-03T03:17:57;101445.75;;;18.97;88.86
49377;BME280;35253;34.688;33.040;2023-05-03T03:20:23;101458.06;;;18.79;91.15
49377;BME280;35253;34.688;33.040;2023-05-03T03:22:48;101449.47;;;18.74;88.76
49377;BME280;35253;34.688;33.040;2023-05-03T03:25:14;101456.25;;;18.68;86.52
49377;BME280;35253;34.688;33.040;2023-05-03T03:27:40;101462.72;;;18.88;87.42
49377;BME280;35253;34.688;33.040;2023-05-03T03:30:07;101462.19;;;19.05;89.31
49377;BME280;35253;34.688;33.040;2023-05-03T03:32:33;101460.47;;;19.15;85.33
49377;BME280;35253;34.688;33.040;2023-05-03T03:34:59;101469.16;;;19.30;87.65
49377;BME280;35253;34.688;33.040;2023-05-03T03:37:25;101461.94;;;19.19;82.93
49377;BME280;35253;34.688;33.040;2023-05-03T03:39:51;101477.72;;;19.35;85.03
49377;BME280;35253;34.688;33.040;2023-05-03T03:42:18;101477.63;;;19.48;87.71
49377;BME280;35253;34.688;33.040;2023-05-03T03:44:45;101468.38;;;19.50;87.10
49377;BME280;35253;34.688;33.040;2023-05-03T03:47:10;101469.44;;;19.59;83.49
49377;BME280;35253;34.688;33.040;2023-05-03T03:49:36;101478.53;;;19.58;82.20
49377;BME280;35253;34.688;33.040;2023-05-03T03:52:02;101484.41;;;19.74;85.39
49377;BME280;35253;34.688;33.040;2023-05-03T03:54:27;101483.16;;;19.78;87.22
49377;BME280;35253;34.688;33.040;2023-05-03T03:56:53;101487.31;;;19.82;86.72
49377;BME280;35253;34.688;33.040;2023-05-03T03:59:19;101481.34;;;19.88;86.58
49377;BME280;35253;34.688;33.040;2023-05-03T04:01:45;101485.28;;;19.95;81.48
49377;BME280;35253;34.688;33.040;2023-05-03T04:04:11;101481.78;;;20.04;79.84
49377;BME280;35253;34.688;33.040;2023-05-03T04:06:36;101493.66;;;20.13;85.15
49377;BME280;35253;34.688;33.040;2023-05-03T04:09:02;101494.72;;;20.21;88.24
49377;BME280;35253;34.688;33.040;2023-05-03T04:11:28;101508.78;;;20.36;90.63
49377;BME280;35253;34.688;33.040;2023-05-03T04:13:54;101508.72;;;20.47;92.05
49377;BME280;35253;34.688;33.040;2023-05-03T04:16:19;101509.50;;;20.59;92.82
49377;BME280;35253;34.688;33.040;2023-05-03T04:18:45;101517.28;;;20.73;92.99
49377;BME280;35253;34.688;33.040;2023-05-03T04:21:11;101516.19;;;20.85;93.03
49377;BME280;35253;34.688;33.040;2023-05-03T04:23:37;101522.22;;;20.98;91.26
49377;BME280;35253;34.688;33.040;2023-05-03T04:26:03;101521.88;;;21.12;89.01
49377;BME280;35253;34.688;33.040;2023-05-03T04:28:29;101519.66;;;21.27;87.14
49377;BME280;35253;34.688;33.040;2023-05-03T04:30:55;101525.50;;;21.42;85.87
49377;BME280;35253;34.688;33.040;2023-05-03T04:33:23;101526.09;;;21.55;84.92
49377;BME280;35253;34.688;33.040;2023-05-03T04:35:49;101521.56;;;21.65;84.78
49377;BME280;35253;34.688;33.040;2023-05-03T04:38:16;101532.00;;;21.79;83.97
49377;BME280;35253;34.688;33.040;2023-05-03T04:40:43;101523.88;;;21.89;83.84
49377;BME280;35253;34.688;33.040;2023-05-03T04:43:09;101534.72;;;21.98;83.52
49377;BME280;35253;34.688;33.040;2023-05-03T04:45:36;101536.44;;;22.09;81.73
49377;BME280;35253;34.688;33.040;2023-05-03T04:48:03;101545.59;;;22.18;81.33
49377;BME280;35253;34.688;33.040;2023-05-03T04:50:30;101541.75;;;22.11;80.98
49377;BME280;35253;34.688;33.040;2023-05-03T04:52:56;101544.19;;;22.14;80.44
49377;BME280;35253;34.688;33.040;2023-05-03T04:55:21;101547.31;;;22.19;83.25
49377;BME280;35253;34.688;33.040;2023-05-03T04:57:47;101554.31;;;22.31;85.04
49377;BME280;35253;34.688;33.040;2023-05-03T05:00:13;101550.16;;;22.46;86.66
49377;BME280;35253;34.688;33.040;2023-05-03T05:02:40;101559.53;;;22.61;88.56
49377;BME280;35253;34.688;33.040;2023-05-03T05:05:06;101564.97;;;22.71;91.00
49377;BME280;35253;34.688;33.040;2023-05-03T05:07:33;101562.94;;;22.82;92.06
49377;BME280;35253;34.688;33.040;2023-05-03T05:09:59;101564.63;;;22.93;93.03
49377;BME280;35253;34.688;33.040;2023-05-03T05:12:25;101573.22;;;22.88;94.29
49377;BME280;35253;34.688;33.040;2023-05-03T05:14:50;101572.94;;;22.91;96.97
49377;BME280;35253;34.688;33.040;2023-05-03T05:17:16;101573.84;;;23.10;100.00
49377;BME280;35253;34.688;33.040;2023-05-03T05:19:42;101574.00;;;23.08;100.00
49377;BME280;35253;34.688;33.040;2023-05-03T05:22:08;101584.50;;;23.30;100.00
49377;BME280;35253;34.688;33.040;2023-05-03T05:24:33;101593.34;;;23.42;100.00
49377;BME280;35253;34.688;33.040;2023-05-03T05:26:59;101597.81;;;23.61;100.00
49377;BME280;35253;34.688;33.040;2023-05-03T05:29:26;101591.31;;;23.71;100.00
49377;BME280;35253;34.688;33.040;2023-05-03T05:31:51;101595.97;;;23.61;100.00
49377;BME280;35253;34.688;33.040;2023-05-03T05:34:17;101602.44;;;23.60;100.00
49377;BME280;35253;34.688;33.040;2023-05-03T05:36:43;101598.16;;;23.75;100.00
49377;BME280;35253;34.688;33.040;2023-05-03T05:39:09;101598.59;;;23.53;100.00
49377;BME280;35253;34.688;33.040;2023-05-03T05:41:35;101598.72;;;23.24;100.00
49377;BME280;35253;34.688;33.040;2023-05-03T05:44:00;101593.72;;;23.74;100.00
49377;BME280;35253;34.688;33.040;2023-05-03T05:46:26;101591.34;;;23.89;100.00
49377;BME280;35253;34.688;33.040;2023-05-03T05:48:52;101590.94;;;23.84;100.00
49377;BME280;35253;34.688;33.040;2023-05-03T05:51:17;101593.06;;;24.08;100.00
49377;BME280;35253;34.688;33.040;2023-05-03T05:53:44;101599.38;;;23.91;100.00
49377;BME280;35253;34.688;33.040;2023-05-03T05:56:10;101588.09;;;23.58;100.00
49377;BME280;35253;34.688;33.040;2023-05-03T05:58:36;101598.72;;;23.97;100.00
49377;BME280;35253;34.688;33.040;2023-05-03T06:01:02;101594.25;;;24.23;100.00
49377;BME280;35253;34.688;33.040;2023-05-03T06:03:29;101598.72;;;24.14;100.00
49377;BME280;35253;34.688;33.040;2023-05-03T06:05:56;101604.53;;;24.29;100.00
49377;BME280;35253;34.688;33.040;2023-05-03T06:08:22;101608.66;;;23.70;100.00
49377;BME280;35253;34.688;33.040;2023-05-03T06:10:47;101603.97;;;23.90;100.00
49377;BME280;35253;34.688;33.040;2023-05-03T06:13:13;101593.72;;;23.74;100.00
49377;BME280;35253;34.688;33.040;2023-05-03T06:15:40;101594.19;;;23.70;100.00
49377;BME280;35253;34.688;33.040;2023-05-03T06:18:06;101594.59;;;24.10;100.00
49377;BME280;35253;34.688;33.040;2023-05-03T06:20:31;101597.13;;;24.39;100.00
49377;BME280;35253;34.688;33.040;2023-05-03T06:22:57;101598.06;;;24.48;100.00
49377;BME280;35253;34.688;33.040;2023-05-03T06:25:23;101598.47;;;24.35;100.00
49377;BME280;35253;34.688;33.040;2023-05-03T06:27:49;101600.94;;;24.46;100.00
49377;BME280;35253;34.688;33.040;2023-05-03T06:30:15;101599.69;;;24.66;100.00
49377;BME280;35253;34.688;33.040;2023-05-03T06:32:41;101606.44;;;24.54;100.00
49377;BME280;35253;34.688;33.040;2023-05-03T06:35:08;101599.22;;;24.71;100.00
49377;BME280;35253;34.688;33.040;2023-05-03T06:37:34;101603.66;;;24.46;100.00
49377;BME280;35253;34.688;33.040;2023-05-03T06:40:00;101595.16;;;24.49;100.00
49377;BME280;35253;34.688;33.040;2023-05-03T06:42:26;101599.97;;;24.55;100.00
49377;BME280;35253;34.688;33.040;2023-05-03T06:44:52;101602.47;;;24.31;100.00
49377;BME280;35253;34.688;33.040;2023-05-03T06:47:17;101595.69;;;24.53;100.00
49377;BME280;35253;34.688;33.040;2023-05-03T06:49:45;101591.41;;;24.50;100.00
49377;BME280;35253;34.688;33.040;2023-05-03T06:52:10;101598.59;;;24.51;100.00
49377;BME280;35253;34.688;33.040;2023-05-03T06:54:36;101597.25;;;24.55;100.00
49377;BME280;35253;34.688;33.040;2023-05-03T06:57:02;101605.56;;;24.54;100.00
49377;BME280;35253;34.688;33.040;2023-05-03T06:59:29;101592.88;;;24.45;100.00
49377;BME280;35253;34.688;33.040;2023-05-03T07:01:55;101593.69;;;24.37;100.00
49377;BME280;35253;34.688;33.040;2023-05-03T07:04:21;101594.00;;;24.52;100.00
49377;BME280;35253;34.688;33.040;2023-05-03T07:06:46;101600.34;;;24.60;100.00
49377;BME280;35253;34.688;33.040;2023-05-03T07:09:12;101598.31;;;24.62;100.00
49377;BME280;35253;34.688;33.040;2023-05-03T07:11:38;101605.13;;;23.33;100.00
49377;BME280;35253;34.688;33.040;2023-05-03T07:14:09;101603.00;;;23.82;100.00
49377;BME280;35253;34.688;33.040;2023-05-03T07:16:34;101606.38;;;24.11;100.00
49377;BME280;35253;34.688;33.040;2023-05-03T07:19:00;101602.28;;;23.79;100.00
49377;BME280;35253;34.688;33.040;2023-05-03T07:21:26;101599.09;;;23.84;100.00
49377;BME280;35253;34.688;33.040;2023-05-03T07:23:53;101605.91;;;23.98;100.00
49377;BME280;35253;34.688;33.040;2023-05-03T07:26:19;101591.13;;;24.18;100.00
49377;BME280;35253;34.688;33.040;2023-05-03T07:28:45;101601.03;;;24.19;100.00
49377;BME280;35253;34.688;33.040;2023-05-03T07:31:11;101600.78;;;23.40;100.00
49377;BME280;35253;34.688;33.040;2023-05-03T07:33:37;101592.19;;;23.35;100.00
49377;BME280;35253;34.688;33.040;2023-05-03T07:36:04;101599.56;;;23.79;100.00
49377;BME280;35253;34.688;33.040;2023-05-03T07:38:30;101601.25;;;24.08;100.00
49377;BME280;35253;34.688;33.040;2023-05-03T07:40:56;101595.03;;;24.15;100.00
49377;BME280;35253;34.688;33.040;2023-05-03T07:43:21;101591.28;;;24.34;100.00
49377;BME280;35253;34.688;33.040;2023-05-03T07:45:48;101592.69;;;24.38;100.00
49377;BME280;35253;34.688;33.040;2023-05-03T07:48:15;101601.25;;;24.43;100.00
49377;BME280;35253;34.688;33.040;2023-05-03T07:50:41;101597.13;;;24.39;100.00
49377;BME280;35253;34.688;33.040;2023-05-03T07:53:08;101606.06;;;24.49;100.00
49377;BME280;35253;34.688;33.040;2023-05-03T07:55:34;101602.00;;;24.53;100.00
49377;BME280;35253;34.688;33.040;2023-05-03T07:58:01;101610.16;;;24.00;100.00
49377;BME280;35253;34.688;33.040;2023-05-03T08:00:28;101599.69;;;24.23;100.00
49377;BME280;35253;34.688;33.040;2023-05-03T08:02:53;101605.84;;;24.43;100.00
49377;BME280;35253;34.688;33.040;2023-05-03T08:05:20;101616.09;;;24.49;100.00
49377;BME280;35253;34.688;33.040;2023-05-03T08:07:48;101619.38;;;24.52;100.00
49377;BME280;35253;34.688;33.040;2023-05-03T08:10:14;101617.09;;;23.50;100.00
49377;BME280;35253;34.688;33.040;2023-05-03T08:12:40;101613.38;;;23.51;100.00
49377;BME280;35253;34.688;33.040;2023-05-03T08:15:06;101609.03;;;24.03;100.00
49377;BME280;35253;34.688;33.040;2023-05-03T08:17:43;101614.81;;;24.35;100.00
49377;BME280;35253;34.688;33.040;2023-05-03T08:20:10;101592.94;;;24.53;100.00
49377;BME280;35253;34.688;33.040;2023-05-03T08:22:39;101598.78;;;24.58;100.00
49377;BME280;35253;34.688;33.040;2023-05-03T08:25:06;101594.53;;;24.55;100.00
49377;BME280;35253;34.688;33.040;2023-05-03T08:27:32;101588.97;;;24.65;100.00
49377;BME280;35253;34.688;33.040;2023-05-03T08:29:58;101589.66;;;24.67;100.00
49377;BME280;35253;34.688;33.040;2023-05-03T08:32:27;101595.28;;;24.65;97.76
49377;BME280;35253;34.688;33.040;2023-05-03T08:34:54;101595.16;;;24.75;100.00
49377;BME280;35253;34.688;33.040;2023-05-03T08:37:21;101607.09;;;24.74;100.00
49377;BME280;35253;34.688;33.040;2023-05-03T08:39:47;101600.31;;;24.78;100.00
49377;BME280;35253;34.688;33.040;2023-05-03T08:42:13;101609.06;;;24.64;100.00
49377;BME280;35253;34.688;33.040;2023-05-03T08:44:46;101607.88;;;24.23;100.00
49377;BME280;35253;34.688;33.040;2023-05-03T08:47:15;101603.69;;;23.84;100.00
49377;BME280;35253;34.688;33.040;2023-05-03T08:49:42;101604.56;;;24.02;100.00
49377;BME280;35253;34.688;33.040;2023-05-03T08:52:09;101612.00;;;24.27;100.00
49377;BME280;35253;34.688;33.040;2023-05-03T08:54:36;101613.28;;;24.05;100.00
49377;BME280;35253;34.688;33.040;2023-05-03T08:57:02;101607.16;;;24.56;100.00
49377;BME280;35253;34.688;33.040;2023-05-03T08:59:28;101608.66;;;24.77;100.00
49377;BME280;35253;34.688;33.040;2023-05-03T09:01:54;101609.00;;;24.99;100.00
49377;BME280;35253;34.688;33.040;2023-05-03T09:04:31;101608.97;;;25.25;100.00
49377;BME280;35253;34.688;33.040;2023-05-03T09:07:10;101593.19;;;25.45;100.00
49377;BME280;35253;34.688;33.040;2023-05-03T09:09:36;101600.16;;;25.39;100.00
49377;BME280;35253;34.688;33.040;2023-05-03T09:12:03;101600.63;;;25.61;100.00
49377;BME280;35253;34.688;33.040;2023-05-03T09:14:29;101596.88;;;25.70;100.00
49377;BME280;35253;34.688;33.040;2023-05-03T09:16:55;101591.78;;;25.75;100.00
49377;BME280;35253;34.688;33.040;2023-05-03T09:19:20;101594.53;;;25.75;100.00
49377;BME280;35253;34.688;33.040;2023-05-03T09:21:48;101598.63;;;25.87;98.54
49377;BME280;35253;34.688;33.040;2023-05-03T09:24:23;101592.97;;;25.80;97.58
49377;BME280;35253;34.688;33.040;2023-05-03T09:26:50;101589.28;;;26.06;97.44
49377;BME280;35253;34.688;33.040;2023-05-03T09:29:34;101579.59;;;26.27;96.09
49377;BME280;35253;34.688;33.040;2023-05-03T09:32:03;101575.81;;;26.20;90.76
49377;BME280;35253;34.688;33.040;2023-05-03T09:34:32;101568.81;;;26.34;92.23
49377;BME280;35253;34.688;33.040;2023-05-03T09:36:58;101571.72;;;26.49;90.99
49377;BME280;35253;34.688;33.040;2023-05-03T09:39:24;101563.31;;;26.66;90.41
49377;BME280;35253;34.688;33.040;2023-05-03T09:41:49;101564.00;;;26.76;89.90
49377;BME280;35253;34.688;33.040;2023-05-03T09:44:16;101565.16;;;26.74;88.59
49377;BME280;35253;34.688;33.040;2023-05-03T09:47:04;101565.66;;;27.02;87.74
49377;BME280;35253;34.688;33.040;2023-05-03T09:49:33;101565.78;;;27.08;87.50
49377;BME280;35253;34.688;33.040;2023-05-03T09:52:02;101562.69;;;27.19;86.06
49377;BME280;35253;34.688;33.040;2023-05-03T09:54:28;101565.47;;;27.50;84.87
49377;BME280;35253;34.688;33.040;2023-05-03T09:57:00;101566.34;;;27.51;82.71
49377;BME280;35253;34.688;33.040;2023-05-03T09:59:27;101567.91;;;27.37;83.34
49377;BME280;35253;34.688;33.040;2023-05-03T10:01:56;101574.06;;;26.76;86.98
49377;BME280;35253;34.688;33.040;2023-05-03T10:04:23;101583.09;;;27.48;86.92
49377;BME280;35253;34.688;33.040;2023-05-03T10:06:51;101573.38;;;27.76;85.24
49377;BME280;35253;34.688;33.040;2023-05-03T10:09:35;101566.00;;;27.76;83.37
49377;BME280;35253;34.688;33.040;2023-05-03T10:12:07;101573.13;;;27.63;84.25
49377;BME280;35253;34.688;33.040;2023-05-03T10:14:34;101559.75;;;28.13;83.80
49377;BME280;35253;34.688;33.040;2023-05-03T10:17:04;101564.38;;;27.90;81.36
49377;BME280;35253;34.688;33.040;2023-05-03T10:19:36;101563.63;;;27.34;85.74
49377;BME280;35253;34.688;33.040;2023-05-03T10:22:07;101556.00;;;28.14;82.34
49377;BME280;35253;34.688;33.040;2023-05-03T10:24:34;101561.50;;;28.52;82.87
49377;BME280;35253;34.688;33.040;2023-05-03T10:27:00;101549.16;;;28.10;79.38
49377;BME280;35253;34.688;33.040;2023-05-03T10:32:05;101562.16;;;27.24;83.15
49377;BME280;35253;34.688;33.040;2023-05-03T10:35:07;101560.28;;;27.16;84.86
49377;BME280;35253;34.688;33.040;2023-05-03T10:37:34;101556.13;;;26.09;87.69
49377;BME280;35253;34.688;33.040;2023-05-03T10:40:14;101554.47;;;26.40;86.85
49377;BME280;35253;34.688;33.040;2023-05-03T10:42:44;101557.16;;;27.66;83.32
49377;BME280;35253;34.688;33.040;2023-05-03T10:45:28;101564.38;;;28.36;81.67
49377;BME280;35253;34.688;33.040;2023-05-03T10:50:41;101554.44;;;28.35;73.14
49377;BME280;35253;34.688;33.040;2023-05-03T10:53:07;101565.91;;;29.05;74.98
49377;BME280;35253;34.688;33.040;2023-05-03T10:55:34;101566.44;;;29.59;73.69
49377;BME280;35253;34.688;33.040;2023-05-03T10:58:00;101556.97;;;29.97;70.46
49377;BME280;35253;34.688;33.040;2023-05-03T11:00:38;101556.59;;;30.01;68.75
49377;BME280;35253;34.688;33.040;2023-05-03T11:05:45;101557.91;;;30.05;69.44
49377;BME280;35253;34.688;33.040;2023-05-03T11:08:14;101549.97;;;29.80;65.99
49377;BME280;35253;34.688;33.040;2023-05-03T11:10:42;101549.56;;;29.98;67.12
49377;BME280;35253;34.688;33.040;2023-05-03T11:13:08;101538.44;;;27.39;76.13
49377;BME280;35253;34.688;33.040;2023-05-03T11:15:34;101544.53;;;28.86;74.02
49377;BME280;35253;34.688;33.040;2023-05-03T11:18:00;101532.41;;;28.95;71.06
49377;BME280;35253;34.688;33.040;2023-05-03T11:20:26;101536.31;;;28.48;72.50
49377;BME280;35253;34.688;33.040;2023-05-03T11:22:51;101528.56;;;28.66;75.86
49377;BME280;35253;34.688;33.040;2023-05-03T11:25:18;101523.50;;;28.93;75.05
49377;BME280;35253;34.688;33.040;2023-05-03T11:27:44;101519.03;;;29.06;73.54
49377;BME280;35253;34.688;33.040;2023-05-03T11:30:12;101520.28;;;29.04;72.42
49377;BME280;35253;34.688;33.040;2023-05-03T11:32:42;101527.00;;;29.31;73.09
49377;BME280;35253;34.688;33.040;2023-05-03T11:35:08;101511.91;;;29.41;73.53
49377;BME280;35253;34.688;33.040;2023-05-03T11:37:35;101501.59;;;29.29;72.28
49377;BME280;35253;34.688;33.040;2023-05-03T11:40:01;101496.22;;;29.35;70.41
49377;BME280;35253;34.688;33.040;2023-05-03T11:42:26;101503.63;;;29.56;69.62
49377;BME280;35253;34.688;33.040;2023-05-03T11:44:55;101495.84;;;29.60;68.70
49377;BME280;35253;34.688;33.040;2023-05-03T11:47:22;101506.00;;;30.02;63.84
49377;BME280;35253;34.688;33.040;2023-05-03T11:49:54;101503.66;;;29.98;65.04
49377;BME280;35253;34.688;33.040;2023-05-03T11:52:25;101496.31;;;29.84;63.57
49377;BME280;35253;34.688;33.040;2023-05-03T11:54:52;101505.44;;;30.06;66.98
49377;BME280;35253;34.688;33.040;2023-05-03T11:57:18;101501.28;;;30.17;64.85
49377;BME280;35253;34.688;33.040;2023-05-03T11:59:45;101491.34;;;29.52;68.61
49377;BME280;35253;34.688;33.040;2023-05-03T12:02:14;101483.22;;;29.15;72.66
49377;BME280;35253;34.688;33.040;2023-05-03T12:04:41;101481.91;;;29.82;69.72
49377;BME280;35253;34.688;33.040;2023-05-03T12:07:09;101474.53;;;29.83;70.06
49377;BME280;35253;34.688;33.040;2023-05-03T12:09:35;101469.97;;;29.90;68.07
49377;BME280;35253;34.688;33.040;2023-05-03T12:12:02;101462.00;;;29.59;66.23
49377;BME280;35253;34.688;33.040;2023-05-03T12:14:57;101457.94;;;29.55;66.44
49377;BME280;35253;34.688;33.040;2023-05-03T12:17:37;101457.69;;;29.71;65.87
49377;BME280;35253;34.688;33.040;2023-05-03T12:20:17;101450.78;;;28.45;67.62
49377;BME280;35253;34.688;33.040;2023-05-03T12:22:43;101457.47;;;29.16;66.23
49377;BME280;35253;34.688;33.040;2023-05-03T12:25:08;101456.13;;;27.10;68.41
49377;BME280;35253;34.688;33.040;2023-05-03T12:27:34;101462.28;;;27.88;67.92
49377;BME280;35253;34.688;33.040;2023-05-03T12:30:00;101460.31;;;28.19;67.78
49377;BME280;35253;34.688;33.040;2023-05-03T12:32:26;101453.97;;;27.96;68.45
49377;BME280;35253;34.688;33.040;2023-05-03T12:34:54;101460.84;;;28.82;68.99
49377;BME280;35253;34.688;33.040;2023-05-03T12:37:20;101459.56;;;26.49;68.46
49377;BME280;35253;34.688;33.040;2023-05-03T12:39:46;101451.81;;;27.69;67.99
49377;BME280;35253;34.688;33.040;2023-05-03T12:42:12;101452.69;;;28.30;68.84
49377;BME280;35253;34.688;33.040;2023-05-03T12:44:38;101445.03;;;28.69;68.08
49377;BME280;35253;34.688;33.040;2023-05-03T12:47:04;101451.56;;;27.56;64.93
49377;BME280;35253;34.688;33.040;2023-05-03T12:49:30;101451.13;;;27.13;63.63
49377;BME280;35253;34.688;33.040;2023-05-03T12:51:56;101455.59;;;27.91;63.65
49377;BME280;35253;34.688;33.040;2023-05-03T12:54:25;101453.78;;;28.20;65.29
49377;BME280;35253;34.688;33.040;2023-05-03T12:56:51;101442.25;;;28.40;64.28
49377;BME280;35253;34.688;33.040;2023-05-03T12:59:16;101437.91;;;28.31;62.71